createdAt,value
2023-05-13T00:01:44.272Z,11.30
2023-05-13T00:04:11.281Z,11.30
2023-05-13T00:06:38.431Z,11.20
2023-05-13T00:09:05.517Z,11.20
2023-05-13T00:11:32.513Z,11.20
2023-05-13T00:13:59.337Z,11.10
2023-05-13T00:16:27.902Z,11.00
2023-05-13T00:18:56.087Z,11.00
2023-05-13T00:21:23.678Z,10.90
2023-05-13T00:23:50.655Z,10.90
2023-05-13T00:26:17.617Z,10.80
2023-05-13T00:28:44.573Z,10.80
2023-05-13T00:31:11.656Z,10.80
2023-05-13T00:33:38.694Z,10.70
2023-05-13T00:36:06.603Z,10.60
2023-05-13T00:38:33.545Z,10.50
2023-05-13T00:41:00.736Z,10.50
2023-05-13T00:43:27.683Z,10.50
2023-05-13T00:45:54.647Z,10.40
2023-05-13T00:48:22.921Z,10.30
2023-05-13T00:50:49.985Z,10.30
2023-05-13T00:53:17.559Z,10.20
2023-05-13T00:55:45.904Z,10.10
2023-05-13T00:58:13.829Z,10.10
2023-05-13T01:01:31.764Z,10.00
2023-05-13T01:04:10.144Z,9.90
2023-05-13T01:07:04.495Z,9.80
2023-05-13T01:10:02.616Z,9.80
2023-05-13T01:12:38.778Z,9.80
2023-05-13T01:15:12.791Z,10.00
2023-05-13T01:17:43.018Z,10.10
2023-05-13T01:20:11.276Z,10.10
2023-05-13T01:22:38.194Z,10.00
2023-05-13T01:25:05.315Z,9.90
2023-05-13T01:27:32.277Z,9.80
2023-05-13T01:29:59.335Z,9.70
2023-05-13T01:32:26.809Z,9.60
2023-05-13T01:34:55.733Z,9.60
2023-05-13T01:37:22.911Z,9.50
2023-05-13T01:39:50.623Z,9.50
2023-05-13T01:42:17.482Z,9.50
2023-05-13T01:44:44.399Z,9.50
2023-05-13T01:47:11.278Z,9.50
2023-05-13T01:49:38.143Z,9.50
2023-05-13T01:52:05.547Z,9.40
2023-05-13T01:54:32.406Z,9.30
2023-05-13T01:56:59.342Z,9.30
2023-05-13T01:59:26.287Z,9.30
2023-05-13T02:01:53.185Z,9.30
2023-05-13T02:04:20.201Z,9.40
2023-05-13T02:06:47.701Z,9.50
2023-05-13T02:09:14.605Z,9.70
2023-05-13T02:11:41.562Z,9.70
2023-05-13T02:14:08.478Z,9.70
2023-05-13T02:16:35.784Z,9.70
2023-05-13T02:19:02.758Z,9.70
2023-05-13T02:21:29.943Z,9.60
2023-05-13T02:23:56.801Z,9.60
2023-05-13T02:26:23.678Z,9.60
2023-05-13T02:28:50.646Z,9.50
2023-05-13T02:31:17.554Z,9.50
2023-05-13T02:33:44.450Z,9.50
2023-05-13T02:36:11.248Z,9.40
2023-05-13T02:38:38.148Z,9.30
2023-05-13T02:41:05.244Z,9.30
2023-05-13T02:43:32.088Z,9.30
2023-05-13T02:45:59.012Z,9.40
2023-05-13T02:48:25.996Z,9.40
2023-05-13T02:50:52.903Z,9.30
2023-05-13T02:53:19.802Z,9.30
2023-05-13T02:55:46.704Z,9.30
2023-05-13T02:58:13.667Z,9.30
2023-05-13T03:00:40.889Z,9.30
2023-05-13T03:03:07.911Z,9.20
2023-05-13T03:05:34.880Z,9.20
2023-05-13T03:08:01.814Z,9.30
2023-05-13T03:10:28.816Z,9.30
2023-05-13T03:12:55.922Z,9.30
2023-05-13T03:15:23.072Z,9.30
2023-05-13T03:17:49.979Z,9.30
2023-05-13T03:20:16.940Z,9.30
2023-05-13T03:22:43.905Z,9.30
2023-05-13T03:25:10.779Z,9.30
2023-05-13T03:27:38.749Z,9.30
2023-05-13T03:30:06.575Z,9.20
2023-05-13T03:32:33.494Z,9.20
2023-05-13T03:35:03.731Z,9.10
2023-05-13T03:37:30.711Z,9.10
2023-05-13T03:39:57.706Z,9.10
2023-05-13T03:42:24.698Z,9.20
2023-05-13T03:44:51.608Z,9.20
2023-05-13T03:47:18.523Z,9.20
2023-05-13T03:49:46.068Z,9.20
2023-05-13T03:52:13.042Z,9.20
2023-05-13T03:54:40.098Z,9.20
2023-05-13T03:57:08.309Z,9.10
2023-05-13T03:59:35.368Z,9.10
2023-05-13T04:02:02.340Z,9.20
2023-05-13T04:04:30.506Z,9.20
2023-05-13T04:06:57.380Z,9.20
2023-05-13T04:09:24.263Z,9.20
2023-05-13T04:11:51.275Z,9.40
2023-05-13T04:14:18.196Z,9.60
2023-05-13T04:16:45.179Z,10.10
2023-05-13T04:19:12.210Z,10.70
2023-05-13T04:21:39.199Z,11.30
2023-05-13T04:24:06.761Z,11.90
2023-05-13T04:26:33.779Z,12.50
2023-05-13T04:29:00.656Z,12.90
2023-05-13T04:31:27.654Z,13.30
2023-05-13T04:33:54.554Z,13.70
2023-05-13T04:36:21.537Z,14.10
2023-05-13T04:38:48.500Z,14.30
2023-05-13T04:41:15.570Z,14.70
2023-05-13T04:43:42.518Z,15.10
2023-05-13T04:46:09.507Z,15.00
2023-05-13T04:48:36.680Z,15.00
2023-05-13T04:51:04.172Z,15.30
2023-05-13T04:53:31.611Z,15.60
2023-05-13T04:56:01.030Z,15.90
2023-05-13T04:58:28.655Z,15.80
2023-05-13T05:00:55.497Z,15.80
2023-05-13T05:03:22.364Z,15.40
2023-05-13T05:05:49.297Z,14.60
2023-05-13T05:08:17.175Z,14.20
2023-05-13T05:10:44.085Z,14.40
2023-05-13T05:13:11.200Z,15.30
2023-05-13T05:15:38.082Z,16.20
2023-05-13T05:18:06.632Z,16.40
2023-05-13T05:20:33.641Z,16.40
2023-05-13T05:23:00.571Z,16.70
2023-05-13T05:25:27.607Z,17.50
2023-05-13T05:27:54.608Z,18.10
2023-05-13T05:30:21.859Z,18.50
2023-05-13T05:32:49.056Z,19.00
2023-05-13T05:35:17.023Z,19.30
2023-05-13T05:37:43.942Z,19.40
2023-05-13T05:40:11.469Z,19.80
2023-05-13T05:42:38.529Z,19.80
2023-05-13T05:45:06.249Z,20.10
2023-05-13T05:47:33.308Z,20.40
2023-05-13T05:50:00.457Z,20.50
2023-05-13T05:52:27.830Z,20.70
2023-05-13T05:54:54.674Z,20.30
2023-05-13T05:57:21.537Z,20.30
2023-05-13T05:59:48.396Z,20.30
2023-05-13T06:02:15.417Z,20.30
2023-05-13T06:04:42.434Z,19.70
2023-05-13T06:07:09.526Z,19.30
2023-05-13T06:09:36.422Z,19.00
2023-05-13T06:12:03.542Z,19.10
2023-05-13T06:14:30.457Z,19.20
2023-05-13T06:16:57.364Z,19.80
2023-05-13T06:19:24.261Z,20.50
2023-05-13T06:21:51.159Z,21.20
2023-05-13T06:24:18.079Z,21.40
2023-05-13T06:26:45.721Z,21.60
2023-05-13T06:29:12.682Z,21.40
2023-05-13T06:31:39.689Z,21.70
2023-05-13T06:34:06.591Z,21.80
2023-05-13T06:36:33.616Z,21.40
2023-05-13T06:39:00.576Z,21.20
2023-05-13T06:41:27.524Z,20.30
2023-05-13T06:43:54.441Z,19.70
2023-05-13T06:46:21.355Z,19.30
2023-05-13T06:48:48.233Z,18.90
2023-05-13T06:51:15.113Z,18.60
2023-05-13T06:53:41.997Z,19.00
2023-05-13T06:56:08.894Z,19.60
2023-05-13T06:58:35.764Z,19.80
2023-05-13T07:01:03.013Z,19.90
2023-05-13T07:03:29.971Z,20.20
2023-05-13T07:05:57.439Z,20.60
2023-05-13T07:08:24.376Z,21.10
2023-05-13T07:10:51.284Z,21.90
2023-05-13T07:13:19.652Z,22.40
2023-05-13T07:15:47.399Z,22.80
2023-05-13T07:18:14.657Z,22.90
2023-05-13T07:20:41.640Z,23.00
2023-05-13T07:23:08.584Z,22.60
2023-05-13T07:25:35.658Z,21.90
2023-05-13T07:28:03.143Z,21.50
2023-05-13T07:30:30.385Z,21.70
2023-05-13T07:32:57.354Z,21.60
2023-05-13T07:35:24.610Z,21.40
2023-05-13T07:37:51.609Z,21.50
2023-05-13T07:40:20.172Z,21.80
2023-05-13T07:42:47.310Z,22.00
2023-05-13T07:45:14.310Z,22.10
2023-05-13T07:47:42.963Z,22.50
2023-05-13T07:50:11.362Z,22.80
2023-05-13T07:52:38.447Z,23.00
2023-05-13T07:55:06.022Z,23.00
2023-05-13T07:57:32.880Z,22.90
2023-05-13T07:59:59.950Z,22.90
2023-05-13T08:02:27.632Z,22.70
2023-05-13T08:04:54.749Z,22.70
2023-05-13T08:07:21.651Z,23.20
2023-05-13T08:09:48.535Z,22.90
2023-05-13T08:12:15.401Z,22.90
2023-05-13T08:14:42.380Z,23.20
2023-05-13T08:17:09.266Z,23.70
2023-05-13T08:19:36.717Z,23.80
2023-05-13T08:22:03.914Z,24.20
2023-05-13T08:24:30.841Z,24.10
2023-05-13T08:26:57.708Z,24.20
2023-05-13T08:29:24.586Z,24.80
2023-05-13T08:31:51.749Z,25.40
2023-05-13T08:34:18.715Z,25.90
2023-05-13T08:36:45.606Z,26.90
2023-05-13T08:39:12.533Z,27.00
2023-05-13T08:41:41.688Z,26.40
2023-05-13T08:44:12.469Z,26.80
2023-05-13T08:46:44.410Z,27.70
2023-05-13T08:49:12.245Z,27.40
2023-05-13T08:51:39.941Z,27.10
2023-05-13T08:54:09.769Z,27.90
2023-05-13T08:56:37.302Z,28.50
2023-05-13T08:59:04.224Z,28.70
2023-05-13T09:01:31.845Z,28.00
2023-05-13T09:04:02.386Z,28.20
2023-05-13T09:06:29.765Z,27.90
2023-05-13T09:08:56.765Z,27.70
2023-05-13T09:11:23.845Z,27.20
2023-05-13T09:14:01.904Z,26.90
2023-05-13T09:16:29.590Z,26.30
2023-05-13T09:19:00.998Z,25.90
2023-05-13T09:21:31.768Z,25.60
2023-05-13T09:24:18.879Z,24.70
2023-05-13T09:26:46.480Z,24.50
2023-05-13T09:29:29.594Z,24.80
2023-05-13T09:32:01.248Z,25.10
2023-05-13T09:34:32.222Z,25.10
2023-05-13T09:37:04.318Z,24.50
2023-05-13T09:39:33.836Z,24.00
2023-05-13T09:42:04.623Z,23.80
2023-05-13T09:44:33.212Z,24.40
2023-05-13T09:47:02.615Z,24.70
2023-05-13T09:49:31.721Z,25.10
2023-05-13T09:51:58.617Z,25.30
2023-05-13T09:54:25.885Z,24.80
2023-05-13T09:56:59.621Z,24.10
2023-05-13T09:59:26.695Z,23.50
2023-05-13T10:01:55.729Z,23.80
2023-05-13T10:04:23.434Z,23.80
2023-05-13T10:06:50.736Z,24.40
2023-05-13T10:09:18.484Z,24.50
2023-05-13T10:11:47.727Z,24.00
2023-05-13T10:14:17.014Z,23.40
2023-05-13T10:16:44.235Z,23.40
2023-05-13T10:19:12.792Z,23.50
2023-05-13T10:21:40.028Z,23.50
2023-05-13T10:24:08.547Z,23.50
2023-05-13T10:26:35.625Z,23.30
2023-05-13T10:29:03.585Z,23.10
2023-05-13T10:31:31.095Z,23.40
2023-05-13T10:33:59.043Z,23.30
2023-05-13T10:37:02.729Z,23.60
2023-05-13T10:40:12.955Z,23.50
2023-05-13T10:42:44.576Z,23.60
2023-05-13T10:45:11.750Z,23.40
2023-05-13T10:47:38.989Z,23.40
2023-05-13T10:50:08.043Z,23.40
2023-05-13T10:52:47.333Z,23.60
2023-05-13T10:55:19.361Z,23.80
2023-05-13T10:58:09.714Z,24.00
2023-05-13T11:00:38.364Z,23.70
2023-05-13T11:03:29.350Z,23.50
2023-05-13T11:06:13.914Z,23.50
2023-05-13T11:08:42.749Z,23.40
2023-05-13T11:11:31.298Z,23.40
2023-05-13T11:14:25.210Z,23.80
2023-05-13T11:17:11.954Z,23.90
2023-05-13T11:19:47.023Z,23.60
2023-05-13T11:22:21.980Z,23.70
2023-05-13T11:25:10.116Z,23.70
2023-05-13T11:27:41.789Z,23.90
2023-05-13T11:30:29.152Z,23.90
2023-05-13T11:33:00.441Z,24.30
2023-05-13T11:35:29.690Z,24.20
2023-05-13T11:38:00.081Z,24.20
2023-05-13T11:40:29.414Z,24.20
2023-05-13T11:42:56.757Z,24.40
2023-05-13T11:45:25.151Z,24.60
2023-05-13T11:47:53.609Z,24.20
2023-05-13T11:50:28.005Z,23.90
2023-05-13T11:52:57.286Z,23.90
2023-05-13T11:55:32.580Z,23.80
2023-05-13T11:58:00.323Z,24.10
2023-05-13T12:00:31.821Z,23.80
2023-05-13T12:02:59.813Z,24.10
2023-05-13T12:05:27.507Z,24.40
2023-05-13T12:07:58.218Z,24.40
2023-05-13T12:10:26.287Z,24.00
2023-05-13T12:12:53.561Z,23.80
2023-05-13T12:15:22.007Z,23.80
2023-05-13T12:17:49.945Z,24.20
2023-05-13T12:20:25.121Z,23.80
2023-05-13T12:22:54.451Z,23.20
2023-05-13T12:25:48.400Z,22.90
2023-05-13T12:28:20.234Z,22.60
2023-05-13T12:31:05.911Z,22.50
2023-05-13T12:33:34.371Z,22.40
2023-05-13T12:36:37.754Z,22.50
2023-05-13T12:39:09.488Z,22.60
2023-05-13T12:41:41.134Z,22.90
2023-05-13T12:44:15.238Z,23.30
2023-05-13T12:46:53.209Z,23.70
2023-05-13T12:49:20.670Z,23.80
2023-05-13T12:51:47.605Z,23.70
2023-05-13T12:54:14.480Z,23.60
2023-05-13T12:56:41.488Z,23.50
2023-05-13T12:59:08.960Z,23.10
2023-05-13T13:01:36.628Z,22.80
2023-05-13T13:04:03.737Z,22.40
2023-05-13T13:06:32.512Z,22.20
2023-05-13T13:08:59.558Z,22.00
2023-05-13T13:11:26.522Z,21.40
2023-05-13T13:13:53.379Z,21.00
2023-05-13T13:16:20.388Z,20.60
2023-05-13T13:18:47.669Z,20.50
2023-05-13T13:21:14.562Z,20.20
2023-05-13T13:23:41.429Z,20.00
2023-05-13T13:26:08.422Z,19.80
2023-05-13T13:28:35.340Z,19.80
2023-05-13T13:31:02.191Z,19.80
2023-05-13T13:33:29.110Z,19.90
2023-05-13T13:35:56.051Z,20.10
2023-05-13T13:38:22.974Z,20.30
2023-05-13T13:40:49.849Z,20.40
2023-05-13T13:43:16.783Z,20.50
2023-05-13T13:45:43.892Z,20.70
2023-05-13T13:48:10.873Z,20.90
2023-05-13T13:50:37.793Z,21.10
2023-05-13T13:53:04.682Z,21.40
2023-05-13T13:55:31.561Z,21.60
2023-05-13T13:57:58.491Z,21.80
2023-05-13T14:00:25.463Z,21.90
2023-05-13T14:02:52.491Z,22.10
2023-05-13T14:05:19.612Z,22.20
2023-05-13T14:07:48.393Z,22.20
2023-05-13T14:10:15.425Z,22.20
2023-05-13T14:12:42.491Z,22.30
2023-05-13T14:15:09.644Z,22.40
2023-05-13T14:17:36.648Z,22.30
2023-05-13T14:20:04.262Z,22.00
2023-05-13T14:22:31.230Z,21.80
2023-05-13T14:24:59.335Z,21.90
2023-05-13T14:27:26.215Z,21.90
2023-05-13T14:29:53.086Z,21.90
2023-05-13T14:32:20.064Z,21.80
2023-05-13T14:34:46.989Z,21.90
2023-05-13T14:37:13.897Z,21.80
2023-05-13T14:39:40.919Z,21.60
2023-05-13T14:42:07.928Z,21.50
2023-05-13T14:44:34.972Z,21.30
2023-05-13T14:47:01.940Z,21.40
2023-05-13T14:49:28.930Z,21.40
2023-05-13T14:51:55.892Z,21.60
2023-05-13T14:54:22.725Z,21.70
2023-05-13T14:56:50.845Z,21.70
2023-05-13T14:59:17.728Z,21.80
2023-05-13T15:01:44.813Z,21.90
2023-05-13T15:04:11.673Z,22.00
2023-05-13T15:06:39.053Z,22.00
2023-05-13T15:09:06.452Z,22.00
2023-05-13T15:11:33.477Z,21.90
2023-05-13T15:14:01.393Z,22.00
2023-05-13T15:16:28.399Z,21.90
2023-05-13T15:18:55.369Z,22.00
2023-05-13T15:21:22.271Z,21.90
2023-05-13T15:23:49.264Z,21.90
2023-05-13T15:26:16.162Z,21.80
2023-05-13T15:28:43.001Z,21.70
2023-05-13T15:31:09.985Z,21.60
2023-05-13T15:33:36.883Z,21.60
2023-05-13T15:36:05.729Z,21.50
2023-05-13T15:38:32.574Z,21.40
2023-05-13T15:40:59.957Z,21.30
2023-05-13T15:43:27.183Z,21.30
2023-05-13T15:45:55.029Z,21.20
2023-05-13T15:48:22.091Z,21.20
2023-05-13T15:50:49.056Z,21.30
2023-05-13T15:53:16.141Z,21.30
2023-05-13T15:55:43.035Z,21.40
2023-05-13T15:58:09.960Z,21.50
2023-05-13T16:00:36.860Z,21.50
2023-05-13T16:03:04.320Z,21.60
2023-05-13T16:05:31.268Z,21.60
2023-05-13T16:07:58.178Z,21.50
2023-05-13T16:10:25.277Z,21.50
2023-05-13T16:12:52.318Z,21.40
2023-05-13T16:15:19.143Z,21.50
2023-05-13T16:17:46.038Z,21.40
2023-05-13T16:20:13.502Z,21.30
2023-05-13T16:22:40.754Z,21.20
2023-05-13T16:25:09.093Z,21.10
2023-05-13T16:27:37.250Z,20.90
2023-05-13T16:30:06.587Z,20.70
2023-05-13T16:32:34.886Z,20.60
2023-05-13T16:35:03.294Z,20.40
2023-05-13T16:37:31.251Z,20.30
2023-05-13T16:39:58.268Z,20.20
2023-05-13T16:42:25.921Z,20.10
2023-05-13T16:44:52.883Z,20.00
2023-05-13T16:47:19.860Z,20.00
2023-05-13T16:49:49.933Z,19.90
2023-05-13T16:52:16.852Z,19.90
2023-05-13T16:54:44.050Z,19.90
2023-05-13T16:57:10.931Z,19.90
2023-05-13T16:59:37.800Z,20.00
2023-05-13T17:02:05.044Z,19.90
2023-05-13T17:04:32.026Z,19.90
2023-05-13T17:06:59.406Z,19.90
2023-05-13T17:09:27.012Z,19.90
2023-05-13T17:11:54.887Z,19.80
2023-05-13T17:14:22.221Z,19.80
2023-05-13T17:16:49.249Z,19.80
2023-05-13T17:19:16.310Z,19.80
2023-05-13T17:21:43.413Z,19.80
2023-05-13T17:24:10.341Z,19.70
2023-05-13T17:26:38.886Z,19.70
2023-05-13T17:29:06.375Z,19.70
2023-05-13T17:31:33.975Z,19.60
2023-05-13T17:34:00.941Z,19.60
2023-05-13T17:36:28.006Z,19.50
2023-05-13T17:38:54.914Z,19.50
2023-05-13T17:41:21.874Z,19.50
2023-05-13T17:43:48.798Z,19.40
2023-05-13T17:46:16.222Z,19.40
2023-05-13T17:48:43.158Z,19.30
2023-05-13T17:51:11.062Z,19.30
2023-05-13T17:53:37.981Z,19.20
2023-05-13T17:56:05.166Z,19.20
2023-05-13T17:58:32.074Z,19.10
2023-05-13T18:00:59.016Z,19.10
2023-05-13T18:03:25.955Z,19.00
2023-05-13T18:05:53.000Z,19.00
2023-05-13T18:08:19.946Z,18.90
2023-05-13T18:10:47.862Z,18.90
2023-05-13T18:13:15.097Z,18.80
2023-05-13T18:15:42.105Z,18.80
2023-05-13T18:18:10.060Z,18.70
2023-05-13T18:20:37.642Z,18.70
2023-05-13T18:23:04.503Z,18.70
2023-05-13T18:25:31.670Z,18.60
2023-05-13T18:27:58.584Z,18.50
2023-05-13T18:30:25.723Z,18.40
2023-05-13T18:32:52.584Z,18.40
2023-05-13T18:35:21.532Z,18.30
2023-05-13T18:37:48.510Z,18.20
2023-05-13T18:40:15.563Z,18.10
2023-05-13T18:42:42.456Z,17.90
2023-05-13T18:45:10.250Z,17.80
2023-05-13T18:47:37.182Z,17.60
2023-05-13T18:50:04.510Z,17.50
2023-05-13T18:52:31.409Z,17.30
2023-05-13T18:54:58.314Z,17.20
2023-05-13T18:57:25.284Z,17.10
2023-05-13T18:59:52.816Z,17.00
2023-05-13T19:02:19.823Z,16.90
2023-05-13T19:04:46.899Z,16.80
2023-05-13T19:07:13.840Z,16.80
2023-05-13T19:09:40.750Z,16.80
2023-05-13T19:12:08.067Z,16.80
2023-05-13T19:14:34.922Z,16.70
2023-05-13T19:17:02.115Z,16.50
2023-05-13T19:19:29.299Z,16.30
2023-05-13T19:21:56.294Z,16.20
2023-05-13T19:24:23.199Z,16.00
2023-05-13T19:26:50.538Z,15.90
2023-05-13T19:29:17.522Z,15.90
2023-05-13T19:31:45.275Z,15.80
2023-05-13T19:34:12.275Z,15.80
2023-05-13T19:36:39.210Z,15.80
2023-05-13T19:39:06.195Z,15.80
2023-05-13T19:41:34.564Z,15.70
2023-05-13T19:44:01.596Z,15.60
2023-05-13T19:46:28.671Z,15.60
2023-05-13T19:48:55.623Z,15.50
2023-05-13T19:51:22.451Z,15.60
2023-05-13T19:53:49.330Z,15.60
2023-05-13T19:56:16.219Z,15.60
2023-05-13T19:58:43.187Z,15.60
2023-05-13T20:01:11.920Z,15.50
2023-05-13T20:03:38.924Z,15.40
2023-05-13T20:06:06.112Z,15.20
2023-05-13T20:08:33.798Z,15.10
2023-05-13T20:11:00.849Z,15.00
2023-05-13T20:13:27.766Z,15.00
2023-05-13T20:15:54.599Z,15.00
2023-05-13T20:18:21.576Z,14.90
2023-05-13T20:20:48.501Z,14.70
2023-05-13T20:23:15.454Z,14.70
2023-05-13T20:25:42.388Z,14.60
2023-05-13T20:28:09.202Z,14.60
2023-05-13T20:30:36.451Z,14.50
2023-05-13T20:33:03.474Z,14.50
2023-05-13T20:35:30.428Z,14.30
2023-05-13T20:37:58.596Z,14.20
2023-05-13T20:40:25.565Z,14.10
2023-05-13T20:42:52.603Z,14.00
2023-05-13T20:45:19.579Z,14.00
2023-05-13T20:47:46.690Z,14.00
2023-05-13T20:50:13.722Z,14.00
2023-05-13T20:52:40.971Z,13.90
2023-05-13T20:55:08.577Z,13.90
2023-05-13T20:57:35.533Z,13.80
2023-05-13T21:00:02.505Z,13.80
2023-05-13T21:02:29.371Z,13.70
2023-05-13T21:04:56.277Z,13.70
2023-05-13T21:07:23.175Z,13.60
2023-05-13T21:09:50.050Z,13.70
2023-05-13T21:12:16.966Z,13.70
2023-05-13T21:14:43.891Z,13.70
2023-05-13T21:17:11.154Z,13.70
2023-05-13T21:19:38.052Z,13.70
2023-05-13T21:22:05.956Z,13.70
2023-05-13T21:24:32.863Z,13.60
2023-05-13T21:26:59.728Z,13.60
2023-05-13T21:29:26.642Z,13.50
2023-05-13T21:31:54.642Z,13.50
2023-05-13T21:34:21.563Z,13.40
2023-05-13T21:36:48.463Z,13.30
2023-05-13T21:39:15.386Z,13.30
2023-05-13T21:41:42.290Z,13.20
2023-05-13T21:44:09.180Z,13.10
2023-05-13T21:46:36.480Z,13.10
2023-05-13T21:49:03.691Z,12.90
2023-05-13T21:51:32.710Z,12.80
2023-05-13T21:53:59.620Z,12.70
2023-05-13T21:56:26.554Z,12.60
2023-05-13T21:58:53.435Z,12.50
2023-05-13T22:01:20.379Z,12.40
2023-05-13T22:03:47.325Z,12.20
2023-05-13T22:06:14.494Z,12.10
2023-05-13T22:08:41.378Z,12.00
2023-05-13T22:11:08.346Z,11.90
2023-05-13T22:13:35.251Z,11.80
2023-05-13T22:16:02.135Z,11.70
2023-05-13T22:18:29.260Z,11.70
2023-05-13T22:20:56.413Z,11.60
2023-05-13T22:23:23.264Z,11.60
2023-05-13T22:25:50.119Z,11.60
2023-05-13T22:28:17.035Z,11.50
2023-05-13T22:30:44.934Z,11.40
2023-05-13T22:33:11.924Z,11.40
2023-05-13T22:35:39.597Z,11.40
2023-05-13T22:38:06.550Z,11.40
2023-05-13T22:40:33.440Z,11.50
2023-05-13T22:43:00.630Z,11.40
2023-05-13T22:45:27.597Z,11.30
2023-05-13T22:47:55.929Z,11.20
2023-05-13T22:50:23.349Z,11.00
2023-05-13T22:52:50.404Z,11.00
2023-05-13T22:55:17.334Z,11.00
2023-05-13T22:57:44.215Z,11.00
2023-05-13T23:00:12.345Z,11.00
2023-05-13T23:02:39.223Z,11.00
2023-05-13T23:05:07.357Z,11.00
2023-05-13T23:07:34.193Z,11.00
2023-05-13T23:10:01.206Z,11.00
2023-05-13T23:12:28.038Z,11.00
2023-05-13T23:14:54.965Z,11.10
2023-05-13T23:17:21.875Z,11.20
2023-05-13T23:19:48.753Z,11.30
2023-05-13T23:22:15.634Z,11.30
2023-05-13T23:24:42.558Z,11.40
2023-05-13T23:27:09.424Z,11.40
2023-05-13T23:29:36.412Z,11.40
2023-05-13T23:32:05.166Z,11.40
2023-05-13T23:34:33.549Z,11.50
2023-05-13T23:37:00.385Z,11.50
2023-05-13T23:39:27.244Z,11.50
2023-05-13T23:41:54.129Z,11.50
2023-05-13T23:44:21.049Z,11.50
2023-05-13T23:46:48.023Z,11.40
2023-05-13T23:49:15.225Z,11.40
2023-05-13T23:51:42.124Z,11.40
2023-05-13T23:54:09.005Z,11.30
2023-05-13T23:56:35.925Z,11.20
2023-05-13T23:59:02.875Z,11.20
